Time;durP1;ratioP1;P1;durP2;ratioP2;P2;SDS_P1;SDS_P2;PMS_P1;PMS_P2;Temp;Humidity;BMP_temperature;BMP_pressure;BME280_temperature;BME280_humidity;BME280_pressure;Samples;Min_cycle;Max_cycle;Signal;HPM_P1;HPM_P2
2021/08/07 00:01:02;;;;;;;5.70;2.20;;;21.30;71.20;;;;;;5092181;28;20051;-70
2021/08/07 00:03:28;;;;;;;10.07;2.65;;;21.30;71.30;;;;;;5092550;28;20028;-70
2021/08/07 00:05:53;;;;;;;10.90;2.63;;;21.30;71.30;;;;;;5091727;28;20105;-70
2021/08/07 00:08:19;;;;;;;11.55;2.92;;;21.30;71.30;;;;;;5092187;28;20023;-70
2021/08/07 00:10:45;;;;;;;13.18;2.78;;;21.20;71.30;;;;;;5091997;28;20066;-70
2021/08/07 00:13:13;;;;;;;14.07;2.28;;;21.20;71.50;;;;;;5092777;28;20123;-70
2021/08/07 00:15:39;;;;;;;8.63;2.53;;;21.10;71.60;;;;;;5091787;28;20039;-70
2021/08/07 00:18:04;;;;;;;12.27;2.33;;;21.20;71.90;;;;;;5091834;28;20020;-70
2021/08/07 00:20:31;;;;;;;8.43;2.70;;;21.10;72.00;;;;;;5092449;28;20032;-70
2021/08/07 00:22:56;;;;;;;9.18;2.42;;;21.10;72.30;;;;;;5090251;28;20376;-70
2021/08/07 00:25:22;;;;;;;11.80;3.33;;;21.10;72.80;;;;;;5092299;28;20046;-70
2021/08/07 00:27:48;;;;;;;9.50;2.85;;;21.10;73.10;;;;;;5092076;28;20034;-70
2021/08/07 00:30:14;;;;;;;10.25;2.40;;;21.10;73.30;;;;;;5089680;28;20031;-70
2021/08/07 00:32:40;;;;;;;13.43;2.58;;;21.10;73.50;;;;;;5092297;28;20020;-70
2021/08/07 00:35:10;;;;;;;13.05;2.38;;;21.10;73.80;;;;;;5090822;28;20423;-70
2021/08/07 00:37:38;;;;;;;11.38;2.95;;;21.10;74.00;;;;;;5090496;28;20020;-70
2021/08/07 00:40:08;;;;;;;7.95;2.60;;;21.10;74.20;;;;;;5089163;28;20534;-70
2021/08/07 00:42:35;;;;;;;6.88;2.83;;;21.10;74.50;;;;;;5090386;28;20034;-70
2021/08/07 00:45:08;;;;;;;9.30;2.73;;;21.10;74.80;;;;;;5090103;28;20032;-70
2021/08/07 00:47:37;;;;;;;7.25;2.90;;;21.00;74.90;;;;;;5090423;28;20800;-70
2021/08/07 00:50:07;;;;;;;6.00;2.42;;;21.00;75.30;;;;;;5089032;28;20016;-70
2021/08/07 00:52:36;;;;;;;5.82;2.60;;;21.10;75.40;;;;;;5090204;28;20471;-70
2021/08/07 00:55:04;;;;;;;9.68;2.70;;;21.10;75.30;;;;;;5085446;28;20081;-70
2021/08/07 00:57:31;;;;;;;6.78;2.60;;;21.00;75.20;;;;;;5081534;28;20028;-70
2021/08/07 00:59:58;;;;;;;7.03;2.63;;;21.00;75.30;;;;;;5090522;28;20410;-70
2021/08/07 01:02:25;;;;;;;17.30;2.97;;;21.00;75.30;;;;;;5092150;28;20028;-70
2021/08/07 01:05:05;;;;;;;13.30;2.90;;;20.90;75.50;;;;;;5086739;28;20043;-70
2021/08/07 01:07:53;;;;;;;9.68;2.13;;;21.00;75.50;;;;;;5089498;28;20034;-70
2021/08/07 01:10:35;;;;;;;6.00;2.80;;;21.00;75.20;;;;;;5090604;28;20034;-70
2021/08/07 01:13:15;;;;;;;7.38;2.38;;;20.90;75.90;;;;;;5083757;28;20021;-70
2021/08/07 01:15:49;;;;;;;8.85;2.42;;;20.90;75.30;;;;;;5090063;28;20062;-70
2021/08/07 01:18:20;;;;;;;7.97;2.60;;;20.90;75.90;;;;;;5089973;28;20364;-70
2021/08/07 01:20:52;;;;;;;6.40;2.20;;;20.90;76.10;;;;;;5090246;28;20060;-70
2021/08/07 01:23:40;;;;;;;8.23;2.42;;;20.90;76.00;;;;;;5089611;28;20035;-70
2021/08/07 01:26:12;;;;;;;6.57;2.55;;;20.90;75.80;;;;;;5088582;28;20479;-70
2021/08/07 01:28:46;;;;;;;9.95;2.90;;;20.90;75.70;;;;;;5087220;28;20021;-70
2021/08/07 01:31:15;;;;;;;9.13;3.30;;;20.90;76.20;;;;;;5086376;28;20056;-70
2021/08/07 01:33:44;;;;;;;9.13;2.58;;;20.80;76.60;;;;;;5089683;28;20062;-70
2021/08/07 01:36:17;;;;;;;7.03;2.75;;;20.80;77.00;;;;;;5089809;28;20035;-70
2021/08/07 01:38:49;;;;;;;6.35;2.50;;;20.80;76.80;;;;;;5089917;28;20020;-70
2021/08/07 01:41:21;;;;;;;5.90;2.38;;;20.80;77.20;;;;;;5089072;28;20032;-70
2021/08/07 01:43:51;;;;;;;7.10;2.88;;;20.90;77.00;;;;;;5083538;28;20039;-70
2021/08/07 01:46:29;;;;;;;4.53;1.92;;;20.80;76.10;;;;;;5084508;28;20043;-70
2021/08/07 01:49:13;;;;;;;7.22;2.30;;;20.80;75.00;;;;;;5085730;28;20522;-70
2021/08/07 01:51:56;;;;;;;3.45;2.20;;;20.70;74.60;;;;;;5086169;28;20525;-70
2021/08/07 01:54:32;;;;;;;7.72;2.42;;;20.70;74.60;;;;;;5087981;28;20376;-70
2021/08/07 01:57:06;;;;;;;4.13;2.17;;;20.70;74.80;;;;;;5088732;28;20024;-70
2021/08/07 01:59:36;;;;;;;12.00;2.13;;;20.70;75.00;;;;;;5092606;28;20368;-70
2021/08/07 02:02:03;;;;;;;7.00;2.50;;;20.60;75.00;;;;;;5092734;28;20032;-70
2021/08/07 02:04:42;;;;;;;9.48;2.10;;;20.60;74.20;;;;;;5085701;28;20050;-70
2021/08/07 02:07:16;;;;;;;4.75;1.90;;;20.60;74.20;;;;;;5092150;28;20028;-70
2021/08/07 02:09:43;;;;;;;7.03;2.00;;;20.60;74.10;;;;;;5092797;28;20032;-70
2021/08/07 02:12:10;;;;;;;6.90;2.92;;;20.50;74.90;;;;;;5093115;28;20390;-71
2021/08/07 02:14:44;;;;;;;8.32;2.13;;;20.60;74.60;;;;;;5085523;28;20109;-71
2021/08/07 02:17:14;;;;;;;6.90;2.05;;;20.50;74.80;;;;;;5087455;28;20459;-70
2021/08/07 02:19:42;;;;;;;5.45;2.25;;;20.40;74.10;;;;;;5093023;28;20390;-70
2021/08/07 02:22:09;;;;;;;3.20;1.60;;;20.40;75.10;;;;;;5089699;28;20473;-70
2021/08/07 02:24:39;;;;;;;9.93;2.17;;;20.40;74.40;;;;;;5092856;28;20036;-70
2021/08/07 02:27:06;;;;;;;5.25;2.00;;;20.40;74.40;;;;;;5093043;28;20024;-71
2021/08/07 02:29:34;;;;;;;4.90;1.98;;;20.40;74.80;;;;;;5092249;28;20116;-71
2021/08/07 02:32:09;;;;;;;7.00;2.42;;;20.40;75.00;;;;;;5093126;28;20032;-70
2021/08/07 02:34:38;;;;;;;8.13;2.30;;;20.40;75.20;;;;;;5092554;28;20024;-71
2021/08/07 02:37:08;;;;;;;6.15;2.08;;;20.40;75.20;;;;;;5093411;28;20016;-70
2021/08/07 02:39:38;;;;;;;4.63;1.95;;;20.40;75.10;;;;;;5092432;28;20032;-71
2021/08/07 02:42:07;;;;;;;4.50;1.80;;;20.30;74.90;;;;;;5092209;28;20078;-70
2021/08/07 02:44:40;;;;;;;10.23;2.05;;;20.40;75.20;;;;;;5091060;28;20039;-70
2021/08/07 02:47:07;;;;;;;4.45;1.63;;;20.30;75.00;;;;;;5092566;28;20028;-70
2021/08/07 02:49:34;;;;;;;8.02;1.75;;;20.30;74.60;;;;;;5091500;28;20479;-70
2021/08/07 02:52:01;;;;;;;6.00;1.95;;;20.30;74.90;;;;;;5092463;28;20111;-71
2021/08/07 02:54:27;;;;;;;5.15;1.65;;;20.30;75.30;;;;;;5093112;28;20122;-70
2021/08/07 02:56:54;;;;;;;6.68;1.65;;;20.20;75.00;;;;;;5090792;28;20432;-71
2021/08/07 02:59:20;;;;;;;2.50;1.35;;;20.20;74.80;;;;;;5079995;28;20024;-70
2021/08/07 03:01:47;;;;;;;2.70;1.58;;;20.20;74.80;;;;;;5090736;28;20047;-70
2021/08/07 03:04:13;;;;;;;5.88;1.70;;;20.20;74.80;;;;;;5085984;28;20093;-70
2021/08/07 03:06:39;;;;;;;3.05;1.25;;;20.20;74.90;;;;;;5091680;28;20114;-70
2021/08/07 03:09:05;;;;;;;7.03;1.50;;;20.20;74.70;;;;;;5089195;28;20147;-70
2021/08/07 03:11:36;;;;;;;3.80;1.33;;;20.10;74.70;;;;;;5091928;28;20021;-70
2021/08/07 03:14:04;;;;;;;6.88;1.90;;;20.10;74.80;;;;;;5090449;28;20083;-70
2021/08/07 03:16:35;;;;;;;5.75;1.50;;;20.00;75.10;;;;;;5109592;28;20024;-70
2021/08/07 03:19:03;;;;;;;4.47;1.15;;;20.00;74.90;;;;;;5091451;28;20020;-70
2021/08/07 03:21:29;;;;;;;0.98;0.73;;;19.90;74.90;;;;;;5092146;28;20020;-70
2021/08/07 03:23:59;;;;;;;3.10;1.30;;;20.00;74.90;;;;;;5091867;28;20040;-70
2021/08/07 03:26:27;;;;;;;4.18;1.77;;;19.90;75.20;;;;;;5090562;28;20483;-70
2021/08/07 03:28:55;;;;;;;8.70;1.30;;;19.80;75.40;;;;;;5091870;28;20032;-70
2021/08/07 03:31:22;;;;;;;5.93;1.40;;;19.80;75.60;;;;;;5091299;28;20121;-70
2021/08/07 03:33:48;;;;;;;4.85;1.52;;;19.70;75.60;;;;;;5093461;28;20472;-70
2021/08/07 03:36:17;;;;;;;7.40;2.58;;;19.70;75.50;;;;;;5091230;28;20106;-70
2021/08/07 03:38:48;;;;;;;4.43;1.88;;;19.70;75.70;;;;;;5091545;28;20031;-70
2021/08/07 03:41:14;;;;;;;9.23;1.65;;;19.70;75.70;;;;;;5091374;28;20020;-70
2021/08/07 03:43:41;;;;;;;4.35;1.63;;;19.70;75.80;;;;;;5091587;28;20117;-70
2021/08/07 03:46:07;;;;;;;4.53;1.20;;;19.60;75.50;;;;;;5090912;28;20028;-70
2021/08/07 03:48:33;;;;;;;2.67;1.60;;;19.60;75.30;;;;;;5092325;28;20023;-70
2021/08/07 03:50:59;;;;;;;5.25;1.88;;;19.60;75.50;;;;;;5091819;28;20039;-70
2021/08/07 03:53:36;;;;;;;4.10;1.95;;;19.60;75.50;;;;;;5090555;28;20034;-70
2021/08/07 03:56:02;;;;;;;2.90;1.25;;;19.60;75.50;;;;;;5092571;28;20040;-70
2021/08/07 03:58:28;;;;;;;1.88;1.20;;;19.60;75.50;;;;;;5090434;28;20487;-70
2021/08/07 04:01:02;;;;;;;6.68;1.33;;;19.60;75.40;;;;;;5090921;28;20046;-70
2021/08/07 04:03:32;;;;;;;8.30;1.52;;;19.60;75.40;;;;;;5087851;28;20434;-70
2021/08/07 04:06:00;;;;;;;8.23;2.20;;;19.60;75.50;;;;;;5090085;28;20058;-70
2021/08/07 04:08:30;;;;;;;5.30;1.73;;;19.50;75.60;;;;;;5090681;28;20027;-70
2021/08/07 04:10:56;;;;;;;5.38;1.95;;;19.60;75.80;;;;;;5090471;28;20035;-70
2021/08/07 04:13:24;;;;;;;6.40;1.60;;;19.50;75.60;;;;;;5091316;28;20554;-70
2021/08/07 04:15:51;;;;;;;5.70;1.85;;;19.50;75.40;;;;;;5089217;28;20111;-70
2021/08/07 04:18:17;;;;;;;5.43;1.90;;;19.50;75.50;;;;;;5090911;28;20131;-70
2021/08/07 04:20:44;;;;;;;5.78;1.35;;;19.50;75.60;;;;;;5089969;28;20036;-70
2021/08/07 04:23:10;;;;;;;8.23;1.30;;;19.50;75.50;;;;;;5090570;28;20024;-70
2021/08/07 04:25:39;;;;;;;9.55;2.22;;;19.40;75.20;;;;;;5090535;28;20035;-70
2021/08/07 04:28:07;;;;;;;5.28;2.00;;;19.50;75.40;;;;;;5089645;28;20024;-70
2021/08/07 04:30:33;;;;;;;7.40;2.20;;;19.40;75.40;;;;;;5092137;28;20028;-70
2021/08/07 04:33:01;;;;;;;6.53;1.88;;;19.40;75.40;;;;;;5090510;28;20030;-70
2021/08/07 04:35:30;;;;;;;5.53;2.03;;;19.40;75.60;;;;;;5090206;28;20032;-70
2021/08/07 04:37:58;;;;;;;4.85;1.58;;;19.40;75.50;;;;;;5090505;28;20189;-70
2021/08/07 04:40:30;;;;;;;7.28;1.95;;;19.30;75.50;;;;;;5090456;28;20020;-70
2021/08/07 04:43:02;;;;;;;5.32;2.58;;;19.30;75.30;;;;;;5089924;28;20442;-70
2021/08/07 04:45:28;;;;;;;6.22;1.90;;;19.30;75.40;;;;;;5089948;28;20027;-70
2021/08/07 04:47:56;;;;;;;4.40;1.80;;;19.30;76.20;;;;;;5092254;28;20383;-71
2021/08/07 04:50:28;;;;;;;3.75;1.80;;;19.30;75.60;;;;;;5089796;28;20418;-70
2021/08/07 04:52:56;;;;;;;5.63;1.85;;;19.30;75.70;;;;;;5090277;28;20020;-70
2021/08/07 04:55:22;;;;;;;4.28;1.88;;;19.20;75.70;;;;;;5090398;28;20100;-70
2021/08/07 04:57:49;;;;;;;4.10;1.75;;;19.30;75.70;;;;;;5088683;28;20024;-70
2021/08/07 05:00:15;;;;;;;4.45;1.65;;;19.20;75.50;;;;;;5089584;28;20027;-70
2021/08/07 05:02:41;;;;;;;7.80;1.77;;;19.20;75.70;;;;;;5089989;28;20026;-70
2021/08/07 05:05:08;;;;;;;10.98;3.08;;;19.20;75.60;;;;;;5086184;28;20032;-70
2021/08/07 05:07:34;;;;;;;7.28;1.92;;;19.20;75.70;;;;;;5090231;28;20028;-70
2021/08/07 05:10:02;;;;;;;14.25;2.22;;;19.20;75.90;;;;;;5089683;28;20074;-70
2021/08/07 05:12:28;;;;;;;4.95;2.20;;;19.20;76.00;;;;;;5089427;28;20449;-70
2021/08/07 05:14:57;;;;;;;7.28;1.98;;;19.20;76.30;;;;;;5085760;28;20045;-70
2021/08/07 05:17:25;;;;;;;9.75;2.10;;;19.20;76.30;;;;;;5083733;28;20032;-71
2021/08/07 05:19:52;;;;;;;3.45;1.80;;;19.20;76.40;;;;;;5089388;28;20020;-70
2021/08/07 05:22:20;;;;;;;4.80;1.85;;;19.20;76.00;;;;;;5079737;28;20024;-70
2021/08/07 05:24:49;;;;;;;9.05;2.05;;;19.20;76.10;;;;;;5088586;28;20053;-70
2021/08/07 05:27:16;;;;;;;8.07;1.90;;;19.20;76.10;;;;;;5090204;28;20016;-70
2021/08/07 05:29:41;;;;;;;10.25;1.85;;;19.20;76.00;;;;;;5091443;28;20126;-76
2021/08/07 05:32:07;;;;;;;3.90;1.77;;;19.20;76.50;;;;;;5090197;28;20050;-73
2021/08/07 05:34:35;;;;;;;5.85;1.50;;;19.20;76.60;;;;;;5093732;28;20044;-72
2021/08/07 05:37:01;;;;;;;7.97;1.83;;;19.20;76.70;;;;;;5094922;28;20020;-71
2021/08/07 05:39:28;;;;;;;7.97;1.80;;;19.20;76.20;;;;;;5092298;28;20028;-72
2021/08/07 05:41:55;;;;;;;11.65;2.00;;;19.20;76.30;;;;;;5094159;28;20020;-71
2021/08/07 05:44:20;;;;;;;4.65;1.35;;;19.20;76.60;;;;;;5093134;28;20517;-72
2021/08/07 05:46:46;;;;;;;7.65;1.55;;;19.20;76.10;;;;;;5093001;28;20106;-71
2021/08/07 05:49:13;;;;;;;5.05;1.90;;;19.20;76.00;;;;;;5094260;28;20028;-72
2021/08/07 05:51:38;;;;;;;9.10;1.90;;;19.10;76.20;;;;;;5093589;28;20039;-72
2021/08/07 05:54:05;;;;;;;9.07;1.70;;;19.20;76.60;;;;;;5093462;28;20024;-71
2021/08/07 05:56:31;;;;;;;13.00;2.45;;;19.20;76.50;;;;;;5093908;28;20031;-72
2021/08/07 05:58:57;;;;;;;13.02;1.98;;;19.10;76.90;;;;;;5093424;28;20051;-71
2021/08/07 06:01:24;;;;;;;4.97;1.35;;;19.20;77.10;;;;;;5094857;28;20028;-72
2021/08/07 06:03:50;;;;;;;4.20;1.42;;;19.20;76.60;;;;;;5091488;28;20049;-72
2021/08/07 06:06:15;;;;;;;5.80;1.67;;;19.20;76.70;;;;;;5095140;28;20050;-72
2021/08/07 06:08:43;;;;;;;6.25;1.50;;;19.20;76.80;;;;;;5093519;28;20031;-72
2021/08/07 06:11:09;;;;;;;7.47;1.55;;;19.10;76.80;;;;;;5090123;28;20501;-72
2021/08/07 06:13:35;;;;;;;4.45;1.40;;;19.20;76.90;;;;;;5093715;28;20142;-72
2021/08/07 06:16:02;;;;;;;1.27;0.85;;;19.10;77.00;;;;;;5086692;28;20016;-72
2021/08/07 06:18:29;;;;;;;1.45;1.15;;;19.10;76.90;;;;;;5093559;28;20114;-72
2021/08/07 06:20:55;;;;;;;3.55;1.27;;;19.10;76.90;;;;;;5092205;28;20116;-71
2021/08/07 06:23:20;;;;;;;8.35;1.30;;;19.10;77.40;;;;;;5093326;28;20540;-71
2021/08/07 06:25:47;;;;;;;2.80;0.75;;;19.10;77.50;;;;;;5092414;28;20028;-71
2021/08/07 06:28:13;;;;;;;4.68;1.10;;;19.00;77.40;;;;;;5092125;28;20020;-72
2021/08/07 06:30:45;;;;;;;2.15;1.10;;;19.10;77.60;;;;;;5093010;28;20031;-71
2021/08/07 06:33:15;;;;;;;1.58;1.13;;;19.10;78.10;;;;;;5090926;28;20146;-71
2021/08/07 06:35:41;;;;;;;2.88;1.02;;;19.10;78.50;;;;;;5092198;28;20127;-72
2021/08/07 06:38:08;;;;;;;4.68;1.17;;;19.00;78.70;;;;;;5093387;28;20024;-72
2021/08/07 06:40:36;;;;;;;5.03;1.60;;;19.00;78.70;;;;;;5092418;28;20020;-71
2021/08/07 06:43:04;;;;;;;5.32;1.23;;;19.00;79.10;;;;;;5088494;28;20115;-73
2021/08/07 06:45:43;;;;;;;4.80;1.45;;;19.00;78.80;;;;;;5090791;28;20054;-71
2021/08/07 06:48:12;;;;;;;7.00;2.10;;;19.10;79.10;;;;;;5091255;28;20517;-78
2021/08/07 06:50:38;;;;;;;5.70;1.70;;;19.10;79.40;;;;;;5092038;28;20028;-71
2021/08/07 06:53:04;;;;;;;2.95;1.17;;;19.10;79.50;;;;;;5092247;28;20035;-71
2021/08/07 06:55:30;;;;;;;7.35;1.60;;;19.20;79.10;;;;;;5091999;28;20032;-71
2021/08/07 06:57:57;;;;;;;5.95;1.67;;;19.20;79.20;;;;;;5090885;28;20024;-71
2021/08/07 07:00:24;;;;;;;9.82;1.83;;;19.20;79.10;;;;;;5092548;28;20032;-71
2021/08/07 07:02:49;;;;;;;11.18;4.18;;;19.30;79.30;;;;;;5091199;28;20032;-71
2021/08/07 07:05:15;;;;;;;9.10;1.63;;;19.20;79.30;;;;;;5091595;28;20028;-71
2021/08/07 07:07:43;;;;;;;5.72;1.95;;;19.30;78.90;;;;;;5090261;28;20190;-71
2021/08/07 07:10:12;;;;;;;8.10;1.88;;;19.40;79.00;;;;;;5081008;28;20032;-71
2021/08/07 07:12:40;;;;;;;4.63;1.35;;;19.40;79.00;;;;;;5091276;28;20020;-71
2021/08/07 07:15:08;;;;;;;8.85;2.08;;;19.40;78.60;;;;;;5090396;28;20048;-72
2021/08/07 07:17:35;;;;;;;3.25;1.35;;;19.40;78.90;;;;;;5090079;28;20054;-71
2021/08/07 07:20:01;;;;;;;7.93;1.58;;;19.40;78.60;;;;;;5090851;28;20086;-72
2021/08/07 07:22:29;;;;;;;5.25;1.52;;;19.40;78.80;;;;;;5090653;28;20024;-71
2021/08/07 07:24:55;;;;;;;5.30;1.45;;;19.40;78.70;;;;;;5091187;28;20043;-71
2021/08/07 07:27:21;;;;;;;6.20;1.65;;;19.40;78.90;;;;;;5089916;28;20027;-71
2021/08/07 07:29:47;;;;;;;5.75;2.13;;;19.50;78.70;;;;;;5089222;28;20036;-71
2021/08/07 07:32:14;;;;;;;5.13;1.38;;;19.60;78.70;;;;;;5090554;28;20082;-70
2021/08/07 07:34:41;;;;;;;6.25;1.60;;;19.60;78.30;;;;;;5079033;28;20024;-71
2021/08/07 07:37:07;;;;;;;5.38;1.45;;;19.60;78.50;;;;;;5091373;28;20024;-71
2021/08/07 07:39:36;;;;;;;1.38;0.80;;;19.60;78.70;;;;;;5090777;28;20032;-71
2021/08/07 07:42:02;;;;;;;3.35;1.85;;;19.60;78.50;;;;;;5091719;28;20084;-69
2021/08/07 07:44:28;;;;;;;6.80;1.60;;;19.60;78.70;;;;;;5090807;28;20122;-70
2021/08/07 07:46:54;;;;;;;2.28;1.20;;;19.60;78.80;;;;;;5090727;28;20103;-71
2021/08/07 07:49:19;;;;;;;2.08;1.05;;;19.60;78.70;;;;;;5091357;28;20028;-71
2021/08/07 07:51:45;;;;;;;7.32;1.63;;;19.60;78.90;;;;;;5090596;28;20020;-71
2021/08/07 07:54:12;;;;;;;1.23;0.90;;;19.60;79.00;;;;;;5090189;28;20055;-72
2021/08/07 07:56:38;;;;;;;5.28;1.33;;;19.60;78.90;;;;;;5090115;28;20372;-72
2021/08/07 07:59:04;;;;;;;5.63;1.15;;;19.60;79.00;;;;;;5089285;28;20066;-71
2021/08/07 08:01:30;;;;;;;2.00;0.98;;;19.60;79.00;;;;;;5089371;28;20531;-72
2021/08/07 08:03:56;;;;;;;10.68;2.33;;;19.60;79.20;;;;;;5089095;28;20036;-71
2021/08/07 08:06:21;;;;;;;8.07;2.40;;;19.60;79.50;;;;;;5092164;28;20058;-72
2021/08/07 08:08:47;;;;;;;4.32;0.95;;;19.60;79.50;;;;;;5091199;28;20383;-72
2021/08/07 08:11:13;;;;;;;5.72;1.52;;;19.70;79.10;;;;;;5090695;28;20035;-72
2021/08/07 08:13:38;;;;;;;7.72;2.22;;;19.70;79.20;;;;;;5091047;28;20566;-72
2021/08/07 08:16:05;;;;;;;5.53;1.65;;;19.70;79.10;;;;;;5090840;28;20020;-72
2021/08/07 08:18:32;;;;;;;6.18;2.10;;;19.70;79.30;;;;;;5089923;28;20020;-72
2021/08/07 08:20:59;;;;;;;8.48;1.45;;;19.70;79.30;;;;;;5088828;28;20032;-72
2021/08/07 08:23:25;;;;;;;2.40;0.70;;;19.80;79.00;;;;;;5087238;28;20467;-72
2021/08/07 08:25:51;;;;;;;6.03;1.77;;;19.80;79.00;;;;;;5090366;28;20024;-72
2021/08/07 08:28:17;;;;;;;8.32;1.70;;;19.80;78.80;;;;;;5088763;28;20031;-72
2021/08/07 08:30:44;;;;;;;6.75;1.75;;;19.80;78.80;;;;;;5089467;28;20032;-72
2021/08/07 08:33:11;;;;;;;3.58;1.55;;;19.80;78.50;;;;;;5089316;28;20077;-72
2021/08/07 08:35:37;;;;;;;2.47;0.90;;;19.90;78.50;;;;;;5088712;28;20433;-73
2021/08/07 08:38:04;;;;;;;5.43;1.10;;;19.90;78.40;;;;;;5089072;28;20031;-72
2021/08/07 08:40:31;;;;;;;2.92;0.57;;;19.90;78.30;;;;;;5089196;28;20035;-72
2021/08/07 08:42:57;;;;;;;7.85;1.58;;;19.90;78.30;;;;;;5088309;28;20074;-72
2021/08/07 08:45:24;;;;;;;4.93;1.73;;;19.90;78.40;;;;;;5089303;28;20452;-72
2021/08/07 08:47:50;;;;;;;7.35;1.42;;;19.90;78.70;;;;;;5087805;28;20622;-72
2021/08/07 08:50:21;;;;;;;7.10;1.85;;;20.00;78.50;;;;;;5089190;28;20065;-73
2021/08/07 08:52:48;;;;;;;4.20;1.30;;;20.00;78.30;;;;;;5089015;28;20024;-72
2021/08/07 08:55:14;;;;;;;7.35;1.55;;;20.10;78.10;;;;;;5089406;28;20115;-73
2021/08/07 08:57:40;;;;;;;6.35;2.22;;;20.00;78.00;;;;;;5089202;28;20020;-72
2021/08/07 09:00:10;;;;;;;8.35;1.75;;;20.10;77.80;;;;;;5086584;28;20575;-73
2021/08/07 09:02:38;;;;;;;6.80;1.42;;;20.10;77.80;;;;;;5079812;28;20019;-73
2021/08/07 09:05:07;;;;;;;4.60;1.77;;;20.10;77.90;;;;;;5088623;28;20075;-72
2021/08/07 09:07:32;;;;;;;8.20;1.85;;;20.20;77.90;;;;;;5091005;28;20367;-73
2021/08/07 09:09:58;;;;;;;6.57;0.93;;;20.20;77.80;;;;;;5090587;28;20109;-72
2021/08/07 09:12:47;;;;;;;16.30;2.20;;;20.20;77.60;;;;;;5091548;28;20043;-72
2021/08/07 09:15:39;;;;;;;3.47;1.15;;;20.30;78.00;;;;;;5086289;28;20037;-72
2021/08/07 09:18:17;;;;;;;2.22;1.02;;;20.40;77.50;;;;;;5090210;28;20021;-72
2021/08/07 09:20:53;;;;;;;3.90;1.13;;;20.40;77.50;;;;;;5098148;28;20028;-72
2021/08/07 09:23:30;;;;;;;7.47;1.65;;;20.50;77.70;;;;;;5092386;28;20031;-73
2021/08/07 09:25:56;;;;;;;5.43;1.60;;;20.50;77.60;;;;;;5090574;28;20070;-73
2021/08/07 09:28:25;;;;;;;7.80;1.60;;;20.50;77.60;;;;;;5093868;28;20016;-74
2021/08/07 09:30:50;;;;;;;5.50;1.60;;;20.60;77.10;;;;;;5093458;28;20386;-74
2021/08/07 09:33:26;;;;;;;3.38;1.17;;;20.70;76.70;;;;;;5093080;28;20032;-72
2021/08/07 09:35:52;;;;;;;3.92;1.10;;;20.80;76.10;;;;;;5092869;28;20028;-73
2021/08/07 09:38:30;;;;;;;3.40;1.30;;;20.80;75.60;;;;;;5092225;28;20051;-72
2021/08/07 09:41:06;;;;;;;1.88;0.98;;;20.90;75.80;;;;;;5092199;28;20118;-73
2021/08/07 09:43:48;;;;;;;1.48;0.52;;;20.90;75.10;;;;;;5091467;28;20038;-72
2021/08/07 09:46:32;;;;;;;1.90;1.05;;;20.90;75.00;;;;;;5089832;28;20123;-72
2021/08/07 09:49:02;;;;;;;3.92;1.67;;;20.90;74.80;;;;;;5090614;28;20224;-71
2021/08/07 09:51:35;;;;;;;1.40;0.85;;;20.90;74.40;;;;;;5090347;28;20035;-71
2021/08/07 09:54:12;;;;;;;5.50;1.25;;;20.90;74.10;;;;;;5094434;28;20547;-72
2021/08/07 09:56:51;;;;;;;3.67;0.90;;;20.90;73.90;;;;;;5092151;28;20024;-71
2021/08/07 09:59:20;;;;;;;1.13;0.68;;;20.90;74.40;;;;;;5093207;28;20453;-72
2021/08/07 10:01:49;;;;;;;1.17;0.57;;;21.00;74.50;;;;;;5105129;28;20047;-71
2021/08/07 10:04:16;;;;;;;3.83;0.75;;;21.00;74.10;;;;;;5082267;28;20063;-71
2021/08/07 10:06:47;;;;;;;1.90;0.80;;;21.10;73.70;;;;;;5091416;28;20114;-72
2021/08/07 10:09:29;;;;;;;3.25;1.17;;;21.10;73.40;;;;;;5092636;28;20498;-71
2021/08/07 10:12:02;;;;;;;2.97;1.08;;;21.10;73.40;;;;;;5093430;28;20119;-71
2021/08/07 10:14:28;;;;;;;4.05;1.40;;;21.10;73.50;;;;;;5092021;28;20048;-71
2021/08/07 10:16:56;;;;;;;1.67;1.00;;;21.20;73.80;;;;;;5082386;28;20024;-71
2021/08/07 10:19:22;;;;;;;3.97;0.95;;;21.20;74.00;;;;;;5088201;28;20468;-71
2021/08/07 10:21:49;;;;;;;4.82;1.10;;;21.30;73.90;;;;;;5094357;28;20081;-73
2021/08/07 10:24:16;;;;;;;6.88;0.60;;;21.30;73.70;;;;;;5091649;28;20078;-71
2021/08/07 10:26:45;;;;;;;1.98;1.00;;;21.50;73.80;;;;;;5088055;28;20039;-71
2021/08/07 10:29:23;;;;;;;2.03;0.95;;;21.40;73.40;;;;;;5090780;28;20031;-72
2021/08/07 10:31:55;;;;;;;0.75;0.47;;;21.50;72.90;;;;;;5092849;28;20047;-72
2021/08/07 10:34:22;;;;;;;0.90;0.60;;;21.60;73.20;;;;;;5092294;28;20020;-72
2021/08/07 10:36:49;;;;;;;3.42;0.88;;;21.60;72.90;;;;;;5092069;28;20027;-72
2021/08/07 10:39:15;;;;;;;4.25;1.20;;;21.50;72.30;;;;;;5093163;28;20028;-75
2021/08/07 10:41:42;;;;;;;4.90;1.15;;;21.60;72.20;;;;;;5087985;28;20032;-82
2021/08/07 10:44:11;;;;;;;0.40;0.32;;;21.70;72.20;;;;;;5086370;28;20111;-73
2021/08/07 10:46:38;;;;;;;1.27;0.50;;;21.70;72.60;;;;;;5086864;28;20085;-75
2021/08/07 10:49:08;;;;;;;0.73;0.50;;;21.80;72.10;;;;;;5085482;28;20028;-74
2021/08/07 10:51:39;;;;;;;0.77;0.43;;;21.80;72.20;;;;;;5090881;28;20028;-72
2021/08/07 10:54:22;;;;;;;1.83;0.85;;;21.80;71.80;;;;;;5090990;28;20028;-72
2021/08/07 10:56:48;;;;;;;2.35;1.05;;;21.80;71.90;;;;;;5091496;28;20352;-76
2021/08/07 10:59:14;;;;;;;7.28;0.57;;;21.80;72.00;;;;;;5093682;28;20030;-72
2021/08/07 11:01:41;;;;;;;2.78;1.00;;;21.90;72.00;;;;;;5092569;28;20794;-72
2021/08/07 11:04:11;;;;;;;1.27;0.60;;;21.90;71.70;;;;;;5091025;28;20448;-71
2021/08/07 11:06:43;;;;;;;2.10;0.55;;;22.00;72.10;;;;;;5093508;28;20032;-71
2021/08/07 11:09:30;;;;;;;3.85;0.82;;;22.00;71.40;;;;;;5091497;28;20034;-73
2021/08/07 11:12:11;;;;;;;4.07;0.82;;;22.00;71.60;;;;;;5092554;28;20047;-72
2021/08/07 11:14:56;;;;;;;0.80;0.40;;;22.10;71.40;;;;;;5084454;28;20047;-71
2021/08/07 11:17:22;;;;;;;5.88;0.88;;;22.10;71.60;;;;;;5090069;28;20745;-71
2021/08/07 11:20:03;;;;;;;0.55;0.43;;;22.20;71.10;;;;;;5082021;28;20028;-71
2021/08/07 11:22:32;;;;;;;1.63;1.17;;;22.20;71.80;;;;;;5089272;28;20054;-71
2021/08/07 11:25:16;;;;;;;2.00;0.60;;;22.30;70.70;;;;;;5091806;28;20139;-71
2021/08/07 11:27:52;;;;;;;2.17;0.80;;;22.40;70.90;;;;;;5091125;28;20028;-71
2021/08/07 11:30:39;;;;;;;3.13;1.08;;;22.50;70.40;;;;;;5090297;28;20036;-71
2021/08/07 11:33:10;;;;;;;3.40;0.73;;;22.50;70.30;;;;;;5089005;28;20024;-71
2021/08/07 11:35:41;;;;;;;2.15;0.70;;;22.50;70.20;;;;;;5090154;28;20040;-72
2021/08/07 11:40:47;;;;;;;3.63;0.77;;;22.70;70.20;;;;;;5090477;28;20163;-71
2021/08/07 11:43:25;;;;;;;1.58;0.75;;;22.70;69.90;;;;;;5089994;28;20039;-74
2021/08/07 11:45:54;;;;;;;0.20;0.20;;;22.70;69.80;;;;;;5091531;28;20128;-71
2021/08/07 11:48:36;;;;;;;1.50;0.82;;;22.70;70.40;;;;;;5092319;28;20028;-71
2021/08/07 11:51:07;;;;;;;7.28;0.88;;;22.80;69.30;;;;;;5090744;28;20061;-72
2021/08/07 11:53:36;;;;;;;3.58;1.00;;;22.80;69.60;;;;;;5092293;28;20422;-72
2021/08/07 11:56:04;;;;;;;0.52;0.35;;;22.90;69.70;;;;;;5091232;28;20043;-71
2021/08/07 11:58:32;;;;;;;3.20;0.80;;;22.90;70.50;;;;;;5091092;28;20544;-72
2021/08/07 12:01:03;;;;;;;4.03;1.00;;;23.00;69.10;;;;;;5092408;28;20027;-75
2021/08/07 12:03:43;;;;;;;3.65;0.60;;;23.00;68.80;;;;;;5090886;28;20099;-72
2021/08/07 12:06:09;;;;;;;2.97;0.95;;;23.10;69.10;;;;;;5080614;28;20055;-72
2021/08/07 12:08:36;;;;;;;1.70;0.85;;;23.10;68.80;;;;;;5089436;28;20036;-72
2021/08/07 12:11:09;;;;;;;3.80;0.77;;;23.20;69.10;;;;;;5090811;28;20031;-73
2021/08/07 12:13:36;;;;;;;;;;;23.20;68.70;;;;;;5089511;28;20090;-72
2021/08/07 12:16:03;;;;;;;11.65;1.45;;;23.30;70.00;;;;;;5088848;28;20010;-73
2021/08/07 12:18:39;;;;;;;1.92;0.77;;;23.40;68.90;;;;;;5091370;28;20441;-73
2021/08/07 12:21:04;;;;;;;2.20;0.98;;;23.40;68.80;;;;;;5090015;28;20439;-74
2021/08/07 12:23:48;;;;;;;2.72;1.00;;;23.40;68.60;;;;;;5091420;28;20060;-73
2021/08/07 12:26:15;;;;;;;2.72;1.05;;;23.40;68.20;;;;;;5089264;28;20047;-76
2021/08/07 12:28:42;;;;;;;1.85;1.00;;;23.60;68.30;;;;;;5091962;28;20020;-72
2021/08/07 12:31:08;;;;;;;1.98;0.63;;;23.60;68.60;;;;;;5088861;28;20040;-72
2021/08/07 12:33:37;;;;;;;3.03;1.20;;;23.70;68.70;;;;;;5088987;28;20024;-73
2021/08/07 12:36:18;;;;;;;4.07;0.90;;;23.60;68.10;;;;;;5088623;28;20426;-73
2021/08/07 12:38:49;;;;;;;1.50;0.75;;;23.70;67.70;;;;;;5078491;28;20032;-73
2021/08/07 12:41:16;;;;;;;1.10;0.60;;;23.70;68.10;;;;;;5087104;28;20108;-72
2021/08/07 12:43:42;;;;;;;3.22;0.80;;;23.80;68.90;;;;;;5076945;28;20090;-73
2021/08/07 12:46:10;;;;;;;0.90;0.68;;;23.90;68.20;;;;;;5089316;28;20036;-72
2021/08/07 12:48:59;;;;;;;2.72;0.88;;;23.90;68.00;;;;;;5089292;28;20031;-72
2021/08/07 12:51:34;;;;;;;2.25;0.75;;;23.90;67.60;;;;;;5087187;28;20031;-72
2021/08/07 12:54:03;;;;;;;1.23;0.63;;;24.00;67.90;;;;;;5079119;28;20031;-72
2021/08/07 12:56:31;;;;;;;7.07;0.82;;;24.00;68.10;;;;;;5090564;28;20035;-72
2021/08/07 12:59:04;;;;;;;2.92;1.00;;;24.00;67.90;;;;;;5091376;28;20043;-72